createdAt,value
2022-08-24T00:00:20.849Z,17.80
2022-08-24T00:02:50.100Z,17.70
2022-08-24T00:05:21.227Z,17.70
2022-08-24T00:07:49.585Z,17.70
2022-08-24T00:10:18.005Z,17.60
2022-08-24T00:12:44.884Z,17.60
2022-08-24T00:15:13.635Z,17.60
2022-08-24T00:17:41.026Z,17.60
2022-08-24T00:20:09.870Z,17.60
2022-08-24T00:22:37.043Z,17.60
2022-08-24T00:25:05.400Z,17.50
2022-08-24T00:27:32.313Z,17.50
2022-08-24T00:29:59.255Z,17.50
2022-08-24T00:32:26.116Z,17.40
2022-08-24T00:34:58.728Z,17.40
2022-08-24T00:37:28.634Z,17.40
2022-08-24T00:39:56.112Z,17.40
2022-08-24T00:42:23.983Z,17.40
2022-08-24T00:44:51.256Z,17.40
2022-08-24T00:47:47.792Z,17.40
2022-08-24T00:50:22.976Z,17.40
2022-08-24T00:52:59.617Z,17.50
2022-08-24T00:55:34.777Z,17.50
2022-08-24T00:58:06.504Z,17.50
2022-08-24T01:00:39.776Z,17.50
2022-08-24T01:03:08.003Z,17.50
2022-08-24T01:05:36.810Z,17.50
2022-08-24T01:08:06.000Z,17.60
2022-08-24T01:10:37.858Z,17.60
2022-08-24T01:13:07.648Z,17.60
2022-08-24T01:15:39.289Z,17.60
2022-08-24T01:18:31.858Z,17.60
2022-08-24T01:21:15.209Z,17.60
2022-08-24T01:23:54.827Z,17.60
2022-08-24T01:26:27.103Z,17.60
2022-08-24T01:29:00.211Z,17.60
2022-08-24T01:31:27.319Z,17.60
2022-08-24T01:33:55.414Z,17.60
2022-08-24T01:36:54.299Z,17.60
2022-08-24T01:39:57.237Z,17.60
2022-08-24T01:42:29.298Z,17.60
2022-08-24T01:44:56.208Z,17.60
2022-08-24T01:47:23.590Z,17.60
2022-08-24T01:49:50.568Z,17.60
2022-08-24T01:52:25.360Z,17.60
2022-08-24T01:54:53.488Z,17.60
2022-08-24T01:57:23.630Z,17.60
2022-08-24T01:59:50.574Z,17.60
2022-08-24T02:02:28.027Z,17.60
2022-08-24T02:04:55.302Z,17.60
2022-08-24T02:07:23.114Z,17.60
2022-08-24T02:09:50.267Z,17.60
2022-08-24T02:12:18.143Z,17.60
2022-08-24T02:14:47.455Z,17.60
2022-08-24T02:17:14.345Z,17.60
2022-08-24T02:19:41.685Z,17.60
2022-08-24T02:22:08.752Z,17.60
2022-08-24T02:24:38.553Z,17.60
2022-08-24T02:27:06.952Z,17.60
2022-08-24T02:29:34.532Z,17.70
2022-08-24T02:32:01.556Z,17.70
2022-08-24T02:34:29.109Z,17.70
2022-08-24T02:36:56.000Z,17.60
2022-08-24T02:39:22.917Z,17.70
2022-08-24T02:41:52.261Z,17.60
2022-08-24T02:44:19.950Z,17.60
2022-08-24T02:46:48.130Z,17.60
2022-08-24T02:49:16.295Z,17.60
2022-08-24T02:51:45.876Z,17.60
2022-08-24T02:54:21.629Z,17.60
2022-08-24T02:56:51.655Z,17.60
2022-08-24T02:59:18.896Z,17.60
2022-08-24T03:01:49.910Z,17.60
2022-08-24T03:04:18.015Z,17.60
2022-08-24T03:06:44.998Z,17.50
2022-08-24T03:09:12.365Z,17.50
2022-08-24T03:11:39.477Z,17.50
2022-08-24T03:14:11.669Z,17.40
2022-08-24T03:16:38.691Z,17.40
2022-08-24T03:19:05.713Z,17.40
2022-08-24T03:21:35.098Z,17.30
2022-08-24T03:24:02.120Z,17.30
2022-08-24T03:26:29.017Z,17.30
2022-08-24T03:28:56.343Z,17.20
2022-08-24T03:31:26.720Z,17.20
2022-08-24T03:33:54.090Z,17.20
2022-08-24T03:36:22.134Z,17.20
2022-08-24T03:38:50.208Z,17.20
2022-08-24T03:41:18.380Z,17.10
2022-08-24T03:43:49.044Z,17.10
2022-08-24T03:46:22.802Z,17.10
2022-08-24T03:48:52.573Z,17.10
2022-08-24T03:51:23.452Z,17.00
2022-08-24T03:53:51.757Z,17.00
2022-08-24T03:56:20.272Z,17.00
2022-08-24T03:58:47.703Z,17.00
2022-08-24T04:01:17.130Z,16.90
2022-08-24T04:03:47.567Z,16.90
2022-08-24T04:06:17.800Z,17.00
2022-08-24T04:08:45.296Z,17.00
2022-08-24T04:11:19.587Z,17.00
2022-08-24T04:13:48.053Z,17.00
2022-08-24T04:16:18.411Z,17.00
2022-08-24T04:18:47.490Z,17.10
2022-08-24T04:21:21.825Z,17.10
2022-08-24T04:23:50.288Z,17.10
2022-08-24T04:26:25.710Z,17.10
2022-08-24T04:29:11.187Z,17.20
2022-08-24T04:31:43.802Z,17.20
2022-08-24T04:34:13.256Z,17.30
2022-08-24T04:36:42.287Z,17.40
2022-08-24T04:39:09.352Z,17.40
2022-08-24T04:41:56.532Z,17.40
2022-08-24T04:44:29.970Z,17.40
2022-08-24T04:46:59.305Z,17.40
2022-08-24T04:49:27.483Z,17.50
2022-08-24T04:51:56.057Z,17.50
2022-08-24T04:54:22.983Z,17.50
2022-08-24T04:57:02.165Z,17.50
2022-08-24T04:59:29.152Z,17.50
2022-08-24T05:01:56.215Z,17.60
2022-08-24T05:04:23.189Z,17.60
2022-08-24T05:06:53.225Z,17.60
2022-08-24T05:09:22.002Z,17.70
2022-08-24T05:11:50.027Z,17.70
2022-08-24T05:14:23.687Z,17.70
2022-08-24T05:16:54.597Z,17.80
2022-08-24T05:19:23.439Z,17.80
2022-08-24T05:21:51.011Z,17.90
2022-08-24T05:24:19.614Z,17.90
2022-08-24T05:26:46.940Z,17.90
2022-08-24T05:29:15.168Z,18.00
2022-08-24T05:31:49.179Z,18.00
2022-08-24T05:34:18.662Z,18.00
2022-08-24T05:36:46.587Z,18.00
2022-08-24T05:39:27.029Z,18.00
2022-08-24T05:41:55.942Z,18.00
2022-08-24T05:44:30.831Z,18.10
2022-08-24T05:47:01.355Z,18.10
2022-08-24T05:49:28.892Z,18.20
2022-08-24T05:51:55.880Z,18.20
2022-08-24T05:54:23.529Z,18.20
2022-08-24T05:57:04.939Z,18.30
2022-08-24T05:59:53.561Z,18.30
2022-08-24T06:02:20.941Z,18.40
2022-08-24T06:04:48.003Z,18.30
2022-08-24T06:07:16.526Z,18.40
2022-08-24T06:09:48.892Z,18.40
2022-08-24T06:12:16.399Z,18.40
2022-08-24T06:14:47.734Z,18.40
2022-08-24T06:17:17.680Z,18.40
2022-08-24T06:19:44.933Z,18.40
2022-08-24T06:22:11.897Z,18.40
2022-08-24T06:24:59.043Z,18.40
2022-08-24T06:27:27.696Z,18.40
2022-08-24T06:30:03.208Z,18.40
2022-08-24T06:32:44.089Z,18.40
2022-08-24T06:35:18.763Z,18.40
2022-08-24T06:37:45.849Z,18.30
2022-08-24T06:40:13.420Z,18.30
2022-08-24T06:42:40.357Z,18.30
2022-08-24T06:45:18.692Z,18.30
2022-08-24T06:47:46.044Z,18.20
2022-08-24T06:50:13.999Z,18.20
2022-08-24T06:52:40.992Z,18.30
2022-08-24T06:55:10.647Z,18.40
2022-08-24T06:57:37.722Z,18.40
2022-08-24T07:00:05.863Z,18.40
2022-08-24T07:02:33.884Z,18.40
2022-08-24T07:05:00.986Z,18.50
2022-08-24T07:07:46.828Z,18.40
2022-08-24T07:10:14.502Z,18.50
2022-08-24T07:12:41.474Z,18.50
2022-08-24T07:15:09.256Z,18.60
2022-08-24T07:17:44.193Z,18.60
2022-08-24T07:20:12.464Z,18.70
2022-08-24T07:22:59.274Z,18.70
2022-08-24T07:25:26.689Z,18.80
2022-08-24T07:27:54.479Z,18.80
2022-08-24T07:30:27.260Z,18.80
2022-08-24T07:32:57.387Z,18.90
2022-08-24T07:35:26.974Z,18.90
2022-08-24T07:37:56.346Z,18.90
2022-08-24T07:40:25.482Z,19.00
2022-08-24T07:42:54.452Z,19.00
2022-08-24T07:45:22.558Z,19.00
2022-08-24T07:47:55.373Z,19.00
2022-08-24T07:50:37.398Z,19.00
2022-08-24T07:53:07.154Z,19.00
2022-08-24T07:55:36.756Z,19.00
2022-08-24T07:58:13.007Z,19.00
2022-08-24T08:00:40.437Z,19.00
2022-08-24T08:03:08.449Z,19.10
2022-08-24T08:05:39.863Z,19.10
2022-08-24T08:08:07.267Z,19.10
2022-08-24T08:10:36.250Z,19.10
2022-08-24T08:13:05.591Z,19.10
2022-08-24T08:15:32.650Z,19.10
2022-08-24T08:18:05.458Z,19.10
2022-08-24T08:20:34.982Z,19.10
2022-08-24T08:23:20.351Z,19.10
2022-08-24T08:26:03.849Z,19.00
2022-08-24T08:28:54.442Z,19.00
2022-08-24T08:31:21.453Z,18.90
2022-08-24T08:33:48.998Z,18.90
2022-08-24T08:36:17.200Z,18.80
2022-08-24T08:38:48.780Z,18.90
2022-08-24T08:41:37.297Z,18.80
2022-08-24T08:44:43.404Z,18.80
2022-08-24T08:47:38.173Z,18.80
2022-08-24T08:50:13.633Z,18.80
2022-08-24T08:52:43.619Z,18.80
2022-08-24T08:55:38.255Z,18.80
2022-08-24T08:58:46.688Z,18.80
2022-08-24T09:02:03.731Z,18.80
2022-08-24T09:04:42.879Z,18.80
2022-08-24T09:07:11.287Z,18.90
2022-08-24T09:09:46.772Z,18.90
2022-08-24T09:12:38.202Z,18.90
2022-08-24T09:15:33.141Z,18.90
2022-08-24T09:18:12.437Z,18.90
2022-08-24T09:21:17.620Z,18.90
2022-08-24T09:23:52.520Z,18.90
2022-08-24T09:26:33.326Z,18.90
2022-08-24T09:29:23.432Z,18.90
2022-08-24T09:31:57.989Z,18.90
2022-08-24T09:34:52.506Z,19.00
2022-08-24T09:37:56.249Z,19.10
2022-08-24T09:40:45.384Z,19.20
2022-08-24T09:43:36.746Z,19.30
2022-08-24T09:46:21.828Z,19.30
2022-08-24T09:49:19.670Z,19.40
2022-08-24T09:52:05.214Z,19.40
2022-08-24T09:55:01.807Z,19.50
2022-08-24T09:57:50.469Z,19.60
2022-08-24T10:00:25.047Z,19.60
2022-08-24T10:03:00.253Z,19.60
2022-08-24T10:05:33.422Z,19.70
2022-08-24T10:08:39.538Z,19.70
2022-08-24T10:11:25.017Z,19.90
2022-08-24T10:14:03.826Z,19.90
2022-08-24T10:16:41.385Z,20.00
2022-08-24T10:19:29.654Z,20.00
2022-08-24T10:22:12.584Z,20.00
2022-08-24T10:24:45.170Z,20.00
2022-08-24T10:27:44.851Z,20.10
2022-08-24T10:30:39.157Z,20.10
2022-08-24T10:33:24.624Z,20.20
2022-08-24T10:36:20.984Z,20.30
2022-08-24T10:39:13.482Z,20.40
2022-08-24T10:42:32.401Z,20.30
2022-08-24T10:45:12.862Z,20.30
2022-08-24T10:47:59.347Z,20.20
2022-08-24T10:50:32.343Z,20.20
2022-08-24T10:53:14.392Z,20.10
2022-08-24T10:55:41.749Z,20.10
2022-08-24T10:58:18.048Z,20.10
2022-08-24T11:00:45.244Z,20.10
2022-08-24T11:03:28.058Z,20.00
2022-08-24T11:05:57.589Z,20.00
2022-08-24T11:08:35.349Z,20.00
2022-08-24T11:11:14.296Z,20.00
2022-08-24T11:13:53.592Z,20.10
2022-08-24T11:16:45.072Z,20.20
2022-08-24T11:19:25.936Z,20.10
2022-08-24T11:21:55.317Z,20.00
2022-08-24T11:24:27.931Z,20.00
2022-08-24T11:26:59.973Z,20.00
2022-08-24T11:29:48.641Z,20.00
2022-08-24T11:32:39.417Z,20.10
2022-08-24T11:35:16.036Z,20.20
2022-08-24T11:37:43.858Z,20.20
2022-08-24T11:40:11.268Z,20.30
2022-08-24T11:42:56.988Z,20.30
2022-08-24T11:45:44.729Z,20.40
2022-08-24T11:48:32.193Z,20.50
2022-08-24T11:51:21.550Z,20.60
2022-08-24T11:54:05.041Z,20.60
2022-08-24T11:56:51.447Z,20.70
2022-08-24T11:59:45.533Z,20.80
2022-08-24T12:02:38.342Z,20.80
2022-08-24T12:05:47.637Z,20.80
2022-08-24T12:08:30.570Z,21.00
2022-08-24T12:11:03.203Z,21.00
2022-08-24T12:14:02.708Z,21.10
2022-08-24T12:16:36.325Z,21.00
2022-08-24T12:19:16.445Z,21.10
2022-08-24T12:21:48.432Z,21.10
2022-08-24T12:24:48.274Z,21.00
2022-08-24T12:27:24.275Z,21.10
2022-08-24T12:29:56.825Z,21.10
2022-08-24T12:32:45.319Z,21.10
2022-08-24T12:35:24.407Z,21.20
2022-08-24T12:38:13.775Z,21.20
2022-08-24T12:40:53.406Z,21.20
2022-08-24T12:43:23.615Z,21.20
2022-08-24T12:45:51.370Z,21.30
2022-08-24T12:48:44.637Z,21.20
2022-08-24T12:51:26.160Z,21.10
2022-08-24T12:54:04.847Z,21.00
2022-08-24T12:56:54.965Z,20.90
2022-08-24T12:59:45.373Z,21.10
2022-08-24T13:02:18.037Z,21.20
2022-08-24T13:05:03.214Z,21.20
2022-08-24T13:07:40.188Z,21.10
2022-08-24T13:10:37.766Z,21.00
2022-08-24T13:13:04.617Z,20.80
2022-08-24T13:15:31.451Z,20.90
2022-08-24T13:18:21.129Z,20.80
2022-08-24T13:20:47.969Z,20.80
2022-08-24T13:23:24.764Z,20.80
2022-08-24T13:25:59.745Z,20.80
2022-08-24T13:28:54.326Z,20.70
2022-08-24T13:31:37.610Z,20.60
2022-08-24T13:34:09.094Z,20.70
2022-08-24T13:36:54.690Z,20.80
2022-08-24T13:39:36.302Z,20.80
2022-08-24T13:42:14.140Z,21.00
2022-08-24T13:45:05.857Z,21.00
2022-08-24T13:47:52.188Z,21.00
2022-08-24T13:50:41.546Z,20.90
2022-08-24T13:53:37.622Z,21.00
2022-08-24T13:56:33.251Z,20.90
2022-08-24T13:59:27.767Z,20.90
2022-08-24T14:02:21.305Z,20.90
2022-08-24T14:05:22.185Z,20.80
2022-08-24T14:08:03.451Z,20.70
2022-08-24T14:10:30.502Z,20.70
2022-08-24T14:13:06.236Z,20.70
2022-08-24T14:16:42.672Z,20.60
2022-08-24T14:19:15.162Z,20.70
2022-08-24T14:21:50.648Z,20.70
2022-08-24T14:24:46.524Z,20.80
2022-08-24T14:27:37.385Z,20.80
2022-08-24T14:30:19.643Z,20.80
2022-08-24T14:33:02.472Z,20.80
2022-08-24T14:35:41.350Z,20.90
2022-08-24T14:38:42.557Z,21.00
2022-08-24T14:41:18.449Z,21.20
2022-08-24T14:43:53.921Z,21.50
2022-08-24T14:46:54.289Z,21.50
2022-08-24T14:49:56.109Z,21.40
2022-08-24T14:53:16.592Z,21.60
2022-08-24T14:56:01.451Z,21.80
2022-08-24T14:58:35.940Z,21.90
2022-08-24T15:01:14.855Z,21.70
2022-08-24T15:04:12.794Z,21.90
2022-08-24T15:06:39.710Z,21.80
2022-08-24T15:09:11.663Z,21.50
2022-08-24T15:11:40.817Z,21.30
2022-08-24T15:14:22.456Z,21.50
2022-08-24T15:17:10.078Z,21.70
2022-08-24T15:19:55.848Z,21.90
2022-08-24T15:22:48.776Z,22.10
2022-08-24T15:25:39.647Z,22.10
2022-08-24T15:28:11.126Z,22.10
2022-08-24T15:30:41.253Z,22.10
2022-08-24T15:33:19.965Z,22.20
2022-08-24T15:36:03.380Z,22.40
2022-08-24T15:38:30.612Z,22.50
2022-08-24T15:41:16.363Z,22.50
2022-08-24T15:43:53.930Z,22.40
2022-08-24T15:46:32.245Z,22.40
2022-08-24T15:49:30.555Z,22.50
2022-08-24T15:52:09.666Z,22.60
2022-08-24T15:54:54.920Z,22.60
2022-08-24T15:57:24.575Z,22.40
2022-08-24T15:59:54.628Z,22.30
2022-08-24T16:02:31.095Z,22.40
2022-08-24T16:05:25.374Z,22.60
2022-08-24T16:08:11.502Z,22.60
2022-08-24T16:10:55.071Z,22.60
2022-08-24T16:13:28.520Z,22.70
2022-08-24T16:16:04.339Z,22.80
2022-08-24T16:18:54.934Z,23.00
2022-08-24T16:22:02.320Z,23.20
2022-08-24T16:24:31.263Z,23.30
2022-08-24T16:27:14.668Z,23.20
2022-08-24T16:29:41.975Z,23.20
2022-08-24T16:32:32.745Z,23.30
2022-08-24T16:35:12.550Z,23.30
2022-08-24T16:37:39.844Z,23.20
2022-08-24T16:40:09.182Z,23.30
2022-08-24T16:42:36.737Z,23.30
2022-08-24T16:45:07.900Z,23.40
2022-08-24T16:47:34.807Z,23.50
2022-08-24T16:50:01.941Z,23.40
2022-08-24T16:52:28.896Z,23.50
2022-08-24T16:54:55.778Z,23.60
2022-08-24T16:57:25.121Z,23.90
2022-08-24T16:59:53.027Z,23.90
2022-08-24T17:02:22.326Z,24.00
2022-08-24T17:04:50.061Z,23.90
2022-08-24T17:07:21.758Z,23.80
2022-08-24T17:09:49.248Z,23.80
2022-08-24T17:12:16.488Z,23.70
2022-08-24T17:14:44.353Z,23.80
2022-08-24T17:17:14.656Z,23.90
2022-08-24T17:19:43.345Z,23.70
2022-08-24T17:22:16.117Z,23.70
2022-08-24T17:24:44.236Z,23.60
2022-08-24T17:27:12.123Z,23.40
2022-08-24T17:29:39.373Z,23.30
2022-08-24T17:32:06.404Z,22.80
2022-08-24T17:34:33.842Z,22.50
2022-08-24T17:37:01.529Z,22.10
2022-08-24T17:39:29.158Z,21.70
2022-08-24T17:41:58.424Z,21.30
2022-08-24T17:44:29.723Z,21.10
2022-08-24T17:46:59.468Z,20.80
2022-08-24T17:49:28.378Z,20.60
2022-08-24T17:51:56.064Z,20.40
2022-08-24T17:54:23.636Z,20.30
2022-08-24T17:56:51.354Z,20.10
2022-08-24T17:59:25.686Z,19.90
2022-08-24T18:01:55.638Z,19.80
2022-08-24T18:04:28.012Z,19.70
2022-08-24T18:07:01.129Z,19.50
2022-08-24T18:09:30.043Z,19.40
2022-08-24T18:12:00.468Z,19.30
2022-08-24T18:14:28.492Z,19.20
2022-08-24T18:16:58.228Z,19.10
2022-08-24T18:19:25.886Z,19.00
2022-08-24T18:21:52.881Z,18.80
2022-08-24T18:24:20.451Z,18.70
2022-08-24T18:26:49.298Z,18.60
2022-08-24T18:29:20.934Z,18.50
2022-08-24T18:31:48.729Z,18.40
2022-08-24T18:34:19.783Z,18.30
2022-08-24T18:36:46.947Z,18.20
2022-08-24T18:39:14.064Z,18.10
2022-08-24T18:41:43.410Z,18.00
2022-08-24T18:44:19.359Z,17.90
2022-08-24T18:46:46.338Z,17.80
2022-08-24T18:49:13.504Z,17.70
2022-08-24T18:51:40.681Z,17.70
2022-08-24T18:54:14.235Z,17.60
2022-08-24T18:56:41.145Z,17.50
2022-08-24T18:59:10.567Z,17.40
2022-08-24T19:01:57.506Z,17.30
2022-08-24T19:04:30.242Z,17.30
2022-08-24T19:07:00.653Z,17.30
2022-08-24T19:09:32.057Z,17.20
2022-08-24T19:12:01.167Z,17.10
2022-08-24T19:14:28.184Z,17.10
2022-08-24T19:16:55.341Z,17.00
2022-08-24T19:19:22.784Z,17.00
2022-08-24T19:21:50.131Z,16.90
2022-08-24T19:24:22.448Z,16.90
2022-08-24T19:26:49.374Z,16.80
2022-08-24T19:29:33.271Z,16.80
2022-08-24T19:32:03.502Z,16.70
2022-08-24T19:34:33.513Z,16.70
2022-08-24T19:37:00.378Z,16.60
2022-08-24T19:39:31.464Z,16.60
2022-08-24T19:41:59.299Z,16.60
2022-08-24T19:44:51.777Z,16.40
2022-08-24T19:47:18.987Z,16.40
2022-08-24T19:49:45.852Z,16.40
2022-08-24T19:52:13.476Z,16.40
2022-08-24T19:54:44.459Z,16.30
2022-08-24T19:57:53.150Z,16.30
2022-08-24T20:00:25.799Z,16.20
2022-08-24T20:02:54.974Z,16.20
2022-08-24T20:05:25.675Z,16.10
2022-08-24T20:07:52.617Z,16.10
2022-08-24T20:10:22.284Z,16.00
2022-08-24T20:12:50.090Z,16.00
2022-08-24T20:15:17.332Z,16.00
2022-08-24T20:17:44.368Z,15.90
2022-08-24T20:20:15.684Z,15.90
2022-08-24T20:22:42.570Z,15.90
2022-08-24T20:25:10.044Z,15.90
2022-08-24T20:27:38.199Z,15.80
2022-08-24T20:30:06.861Z,15.80
2022-08-24T20:32:33.835Z,15.80
2022-08-24T20:35:01.775Z,15.80
2022-08-24T20:37:32.058Z,15.80
2022-08-24T20:39:59.253Z,15.70
2022-08-24T20:42:28.268Z,15.70
2022-08-24T20:44:55.413Z,15.70
2022-08-24T20:47:22.892Z,15.70
2022-08-24T20:49:50.054Z,15.70
2022-08-24T20:52:17.478Z,15.70
2022-08-24T20:54:44.452Z,15.60
2022-08-24T20:57:16.806Z,15.60
2022-08-24T20:59:44.061Z,15.60
2022-08-24T21:02:10.971Z,15.60
2022-08-24T21:04:38.181Z,15.60
2022-08-24T21:07:05.143Z,15.50
2022-08-24T21:09:32.034Z,15.50
2022-08-24T21:11:59.148Z,15.50
2022-08-24T21:14:26.156Z,15.50
2022-08-24T21:16:59.273Z,15.50
2022-08-24T21:19:26.257Z,15.40
2022-08-24T21:21:53.171Z,15.40
2022-08-24T21:24:20.040Z,15.40
2022-08-24T21:26:47.305Z,15.30
2022-08-24T21:29:14.193Z,15.30
2022-08-24T21:31:42.335Z,15.30
2022-08-24T21:34:28.113Z,15.20
2022-08-24T21:36:55.254Z,15.20
2022-08-24T21:39:22.091Z,15.20
2022-08-24T21:41:48.973Z,15.10
2022-08-24T21:44:16.902Z,15.10
2022-08-24T21:46:43.937Z,15.10
2022-08-24T21:49:12.284Z,15.10
2022-08-24T21:51:40.005Z,15.10
2022-08-24T21:54:06.864Z,15.00
2022-08-24T21:56:35.167Z,15.00
2022-08-24T21:59:03.061Z,14.90
2022-08-24T22:01:30.015Z,14.90
2022-08-24T22:03:58.406Z,14.90
2022-08-24T22:06:30.501Z,14.90
2022-08-24T22:08:58.778Z,14.90
2022-08-24T22:11:25.738Z,14.90
2022-08-24T22:13:53.638Z,14.90
2022-08-24T22:16:21.887Z,14.90
2022-08-24T22:18:49.195Z,14.80
2022-08-24T22:21:22.790Z,14.80
2022-08-24T22:23:50.204Z,14.80
2022-08-24T22:26:17.246Z,14.80
2022-08-24T22:28:44.163Z,14.70
2022-08-24T22:31:17.173Z,14.70
2022-08-24T22:33:44.144Z,14.70
2022-08-24T22:36:12.067Z,14.70
2022-08-24T22:38:39.374Z,14.70
2022-08-24T22:41:06.986Z,14.60
2022-08-24T22:43:52.728Z,14.60
2022-08-24T22:46:20.418Z,14.60
2022-08-24T22:48:47.324Z,14.50
2022-08-24T22:51:14.790Z,14.50
2022-08-24T22:53:41.807Z,14.50
2022-08-24T22:56:20.900Z,14.40
2022-08-24T22:58:48.631Z,14.50
2022-08-24T23:01:37.695Z,14.40
2022-08-24T23:04:09.002Z,14.40
2022-08-24T23:06:36.464Z,14.40
2022-08-24T23:09:05.052Z,14.40
2022-08-24T23:11:33.081Z,14.40
2022-08-24T23:14:02.761Z,14.40
2022-08-24T23:16:32.793Z,14.30
2022-08-24T23:19:18.362Z,14.30
2022-08-24T23:21:45.998Z,14.30
2022-08-24T23:24:13.674Z,14.30
2022-08-24T23:26:41.112Z,14.30
2022-08-24T23:29:10.259Z,14.30
2022-08-24T23:31:37.529Z,14.30
2022-08-24T23:34:05.270Z,14.30
2022-08-24T23:36:32.531Z,14.30
2022-08-24T23:39:00.478Z,14.30
2022-08-24T23:41:32.651Z,14.30
2022-08-24T23:44:01.807Z,14.30
2022-08-24T23:46:28.879Z,14.30
2022-08-24T23:48:57.208Z,14.30
2022-08-24T23:51:25.632Z,14.30
2022-08-24T23:53:53.140Z,14.30
2022-08-24T23:56:32.518Z,14.30
2022-08-24T23:59:06.518Z,14.30
